createdAt,value
2023-04-26T00:00:45.258Z,2205.00
2023-04-26T00:01:45.302Z,2198.00
2023-04-26T00:02:45.395Z,2203.00
2023-04-26T00:03:45.664Z,2197.00
2023-04-26T00:04:45.557Z,2189.00
2023-04-26T00:05:45.529Z,2212.00
2023-04-26T00:06:45.406Z,2175.00
2023-04-26T00:07:45.407Z,2252.00
2023-04-26T00:08:45.424Z,2258.00
2023-04-26T00:09:45.437Z,2188.00
2023-04-26T00:10:45.397Z,2191.00
2023-04-26T00:11:45.400Z,2201.00
2023-04-26T00:12:45.394Z,2221.00
2023-04-26T00:13:45.401Z,2169.00
2023-04-26T00:14:45.444Z,2173.00
2023-04-26T00:15:45.395Z,2173.00
2023-04-26T00:16:45.494Z,2190.00
2023-04-26T00:17:45.407Z,2176.00
2023-04-26T00:18:45.412Z,2205.00
2023-04-26T00:19:45.420Z,2196.00
2023-04-26T00:20:45.428Z,2150.00
2023-04-26T00:21:45.412Z,2126.00
2023-04-26T00:22:45.399Z,2178.00
2023-04-26T00:23:45.397Z,2163.00
2023-04-26T00:24:45.419Z,2205.00
2023-04-26T00:25:45.393Z,2186.00
2023-04-26T00:26:45.391Z,2146.00
2023-04-26T00:27:45.384Z,2165.00
2023-04-26T00:28:45.416Z,2146.00
2023-04-26T00:29:45.428Z,2172.00
2023-04-26T00:30:45.417Z,2157.00
2023-04-26T00:31:45.448Z,2172.00
2023-04-26T00:32:45.511Z,2158.00
2023-04-26T00:33:45.440Z,2170.00
2023-04-26T00:34:45.422Z,2147.00
2023-04-26T00:35:45.447Z,2152.00
2023-04-26T00:36:45.430Z,2114.00
2023-04-26T00:37:45.451Z,2103.00
2023-04-26T00:38:45.449Z,2171.00
2023-04-26T00:39:45.465Z,2166.00
2023-04-26T00:40:45.418Z,2149.00
2023-04-26T00:41:45.430Z,2075.00
2023-04-26T00:42:45.468Z,2093.00
2023-04-26T00:43:45.535Z,2103.00
2023-04-26T00:44:45.644Z,2139.00
2023-04-26T00:45:45.702Z,2146.00
2023-04-26T00:46:45.678Z,2117.00
2023-04-26T00:47:45.720Z,2110.00
2023-04-26T00:48:45.798Z,2187.00
2023-04-26T00:49:45.819Z,2163.00
2023-04-26T00:50:45.855Z,2142.00
2023-04-26T00:51:45.920Z,2142.00
2023-04-26T00:52:45.978Z,2137.00
2023-04-26T00:53:46.031Z,2115.00
2023-04-26T00:54:46.103Z,2045.00
2023-04-26T00:55:46.189Z,2036.00
2023-04-26T00:56:46.139Z,2082.00
2023-04-26T00:57:46.160Z,2096.00
2023-04-26T00:58:46.210Z,2063.00
2023-04-26T00:59:46.259Z,2095.00
2023-04-26T01:32:23.521Z,500.00
2023-04-26T01:33:23.292Z,500.00
2023-04-26T01:34:23.302Z,500.00
2023-04-26T01:35:23.488Z,500.00
2023-04-26T01:36:23.272Z,500.00
2023-04-26T01:37:23.286Z,500.00
2023-04-26T01:38:23.262Z,500.00
2023-04-26T01:39:23.243Z,500.00
2023-04-26T01:40:23.488Z,503.00
2023-04-26T01:41:23.230Z,503.00
2023-04-26T01:42:23.265Z,498.00
2023-04-26T01:43:23.313Z,500.00
2023-04-26T01:44:23.329Z,517.00
2023-04-26T01:45:23.488Z,504.00
2023-04-26T01:46:23.467Z,500.00
2023-04-26T01:47:23.453Z,500.00
2023-04-26T01:48:23.434Z,511.00
2023-04-26T01:49:23.458Z,510.00
2023-04-26T01:50:23.995Z,511.00
2023-04-26T01:51:23.544Z,518.00
2023-04-26T01:52:23.539Z,516.00
2023-04-26T01:53:23.595Z,511.00
2023-04-26T01:54:23.612Z,513.00
2023-04-26T01:55:23.980Z,504.00
2023-04-26T01:56:23.680Z,513.00
2023-04-26T01:57:23.727Z,510.00
2023-04-26T01:58:23.753Z,500.00
2023-04-26T01:59:23.756Z,520.00
2023-04-26T02:00:23.972Z,514.00
2023-04-26T02:01:23.922Z,520.00
2023-04-26T02:02:23.872Z,518.00
2023-04-26T02:03:23.928Z,506.00
2023-04-26T02:04:23.833Z,521.00
2023-04-26T02:05:23.919Z,532.00
2023-04-26T02:06:23.909Z,512.00
2023-04-26T02:07:23.923Z,511.00
2023-04-26T02:08:23.953Z,506.00
2023-04-26T02:09:23.991Z,510.00
2023-04-26T02:10:24.037Z,516.00
2023-04-26T02:11:24.041Z,516.00
2023-04-26T02:12:24.047Z,532.00
2023-04-26T02:13:24.088Z,523.00
2023-04-26T02:14:24.101Z,530.00
2023-04-26T02:15:24.136Z,526.00
2023-04-26T02:16:24.218Z,516.00
2023-04-26T02:17:24.187Z,515.00
2023-04-26T02:18:24.210Z,520.00
2023-04-26T02:19:24.267Z,525.00
2023-04-26T02:20:24.266Z,508.00
2023-04-26T02:21:25.999Z,508.00
2023-04-26T02:22:24.341Z,508.00
2023-04-26T02:23:24.354Z,518.00
2023-04-26T02:24:24.417Z,525.00
2023-04-26T02:25:24.422Z,525.00
2023-04-26T02:26:24.448Z,538.00
2023-04-26T02:27:24.485Z,521.00
2023-04-26T02:28:24.541Z,525.00
2023-04-26T02:29:36.197Z,503.00
2023-04-26T02:30:25.556Z,503.00
2023-04-26T02:31:24.602Z,504.00
2023-04-26T02:32:24.563Z,503.00
2023-04-26T02:33:24.548Z,510.00
2023-04-26T02:34:24.528Z,498.00
2023-04-26T02:35:24.526Z,509.00
2023-04-26T02:36:24.529Z,501.00
2023-04-26T02:37:24.506Z,505.00
2023-04-26T02:38:24.477Z,518.00
2023-04-26T02:39:24.468Z,533.00
2023-04-26T02:40:24.492Z,541.00
2023-04-26T02:41:24.456Z,523.00
2023-04-26T02:42:24.457Z,513.00
2023-04-26T02:43:24.456Z,524.00
2023-04-26T02:44:24.473Z,521.00
2023-04-26T02:45:24.497Z,515.00
2023-04-26T02:46:24.561Z,504.00
2023-04-26T02:47:24.588Z,514.00
2023-04-26T02:48:24.611Z,502.00
2023-04-26T02:49:24.654Z,508.00
2023-04-26T02:50:24.690Z,529.00
2023-04-26T02:51:24.734Z,537.00
2023-04-26T02:52:24.735Z,539.00
2023-04-26T02:53:24.752Z,542.00
2023-04-26T02:54:24.798Z,531.00
2023-04-26T02:55:24.836Z,517.00
2023-04-26T02:56:24.861Z,523.00
2023-04-26T02:57:24.874Z,531.00
2023-04-26T02:58:24.905Z,543.00
2023-04-26T02:59:24.913Z,545.00
2023-04-26T03:00:24.934Z,527.00
2023-04-26T03:01:25.050Z,544.00
2023-04-26T03:02:25.108Z,545.00
2023-04-26T03:03:25.104Z,547.00
2023-04-26T03:04:25.036Z,542.00
2023-04-26T03:05:25.048Z,554.00
2023-04-26T03:06:25.073Z,549.00
2023-04-26T03:07:25.112Z,552.00
2023-04-26T03:08:25.122Z,542.00
2023-04-26T03:09:25.157Z,542.00
2023-04-26T03:10:25.181Z,547.00
2023-04-26T03:11:25.209Z,550.00
2023-04-26T03:12:25.243Z,541.00
2023-04-26T03:13:25.313Z,552.00
2023-04-26T03:14:25.320Z,557.00
2023-04-26T03:15:25.364Z,534.00
2023-04-26T03:16:25.391Z,536.00
2023-04-26T03:17:25.397Z,532.00
2023-04-26T03:18:25.380Z,529.00
2023-04-26T03:19:25.413Z,542.00
2023-04-26T03:20:25.455Z,544.00
2023-04-26T03:21:25.485Z,539.00
2023-04-26T03:22:25.516Z,549.00
2023-04-26T03:23:25.546Z,539.00
2023-04-26T03:24:25.554Z,547.00
2023-04-26T03:25:25.573Z,531.00
2023-04-26T03:26:25.583Z,563.00
2023-04-26T03:27:25.620Z,555.00
2023-04-26T03:28:25.662Z,561.00
2023-04-26T03:29:25.683Z,558.00
2023-04-26T03:30:25.722Z,543.00
2023-04-26T03:31:25.746Z,549.00
2023-04-26T03:32:25.771Z,533.00
2023-04-26T03:33:25.771Z,543.00
2023-04-26T03:34:25.816Z,547.00
2023-04-26T03:35:25.845Z,557.00
2023-04-26T03:36:25.892Z,560.00
2023-04-26T03:37:25.899Z,552.00
2023-04-26T03:38:25.920Z,561.00
2023-04-26T03:39:25.948Z,565.00
2023-04-26T03:40:25.978Z,570.00
2023-04-26T03:41:25.975Z,566.00
2023-04-26T03:42:25.996Z,556.00
2023-04-26T03:43:26.051Z,545.00
2023-04-26T03:44:26.052Z,556.00
2023-04-26T03:45:26.092Z,552.00
2023-04-26T03:46:26.182Z,563.00
2023-04-26T03:47:26.210Z,567.00
2023-04-26T03:48:26.184Z,556.00
2023-04-26T03:49:26.207Z,548.00
2023-04-26T03:50:26.286Z,550.00
2023-04-26T03:51:26.268Z,552.00
2023-04-26T03:52:26.302Z,533.00
2023-04-26T03:53:26.341Z,546.00
2023-04-26T03:54:26.376Z,552.00
2023-04-26T03:55:26.401Z,558.00
2023-04-26T03:56:26.388Z,557.00
2023-04-26T03:57:26.421Z,553.00
2023-04-26T03:58:26.438Z,548.00
2023-04-26T03:59:26.490Z,537.00
2023-04-26T04:00:26.524Z,538.00
2023-04-26T04:01:26.532Z,552.00
2023-04-26T04:02:26.691Z,550.00
2023-04-26T04:03:26.817Z,565.00
2023-04-26T04:04:26.791Z,551.00
2023-04-26T04:05:26.728Z,561.00
2023-04-26T04:06:26.719Z,562.00
2023-04-26T04:07:26.709Z,562.00
2023-04-26T04:08:26.703Z,553.00
2023-04-26T04:09:26.732Z,558.00
2023-04-26T04:10:26.754Z,557.00
2023-04-26T04:11:26.756Z,560.00
2023-04-26T04:12:26.817Z,566.00
2023-04-26T04:13:26.835Z,551.00
2023-04-26T04:14:26.846Z,571.00
2023-04-26T04:15:26.893Z,577.00
2023-04-26T04:16:26.937Z,568.00
2023-04-26T04:17:26.974Z,557.00
2023-04-26T04:18:26.981Z,565.00
2023-04-26T04:19:27.021Z,574.00
2023-04-26T04:20:27.032Z,560.00
2023-04-26T04:21:27.071Z,562.00
2023-04-26T04:22:27.106Z,552.00
2023-04-26T04:23:27.130Z,557.00
2023-04-26T04:24:27.181Z,556.00
2023-04-26T04:25:27.175Z,554.00
2023-04-26T04:26:27.182Z,554.00
2023-04-26T04:27:27.205Z,568.00
2023-04-26T04:28:27.212Z,570.00
2023-04-26T04:29:27.250Z,569.00
2023-04-26T04:30:27.262Z,564.00
2023-04-26T04:31:27.342Z,558.00
2023-04-26T04:32:27.361Z,565.00
2023-04-26T04:33:27.407Z,561.00
2023-04-26T04:34:27.371Z,554.00
2023-04-26T04:35:27.438Z,565.00
2023-04-26T04:36:27.446Z,559.00
2023-04-26T04:37:27.455Z,560.00
2023-04-26T04:38:27.469Z,556.00
2023-04-26T04:39:27.491Z,563.00
2023-04-26T04:40:27.552Z,564.00
2023-04-26T04:41:27.581Z,569.00
2023-04-26T04:42:27.605Z,571.00
2023-04-26T04:43:27.624Z,564.00
2023-04-26T04:44:27.772Z,564.00
2023-04-26T04:45:27.670Z,570.00
2023-04-26T04:46:27.731Z,568.00
2023-04-26T04:47:27.763Z,557.00
2023-04-26T04:48:27.772Z,552.00
2023-04-26T04:49:27.792Z,560.00
2023-04-26T04:50:27.839Z,563.00
2023-04-26T04:51:27.848Z,554.00
2023-04-26T04:52:27.864Z,564.00
2023-04-26T04:53:27.883Z,569.00
2023-04-26T04:54:27.899Z,562.00
2023-04-26T04:55:27.949Z,571.00
2023-04-26T04:56:27.952Z,562.00
2023-04-26T04:57:27.961Z,559.00
2023-04-26T04:58:27.981Z,561.00
2023-04-26T04:59:28.188Z,560.00
2023-04-26T05:00:28.050Z,564.00
2023-04-26T05:01:28.099Z,557.00
2023-04-26T05:02:28.229Z,557.00
2023-04-26T05:03:28.177Z,551.00
2023-04-26T05:04:28.408Z,548.00
2023-04-26T05:05:28.165Z,546.00
2023-04-26T05:06:28.192Z,543.00
2023-04-26T05:07:29.191Z,551.00
2023-04-26T05:08:28.274Z,550.00
2023-04-26T05:09:28.271Z,533.00
2023-04-26T05:10:28.299Z,541.00
2023-04-26T05:11:28.333Z,536.00
2023-04-26T05:12:28.352Z,541.00
2023-04-26T05:13:28.382Z,532.00
2023-04-26T05:14:28.389Z,546.00
2023-04-26T05:15:28.415Z,546.00
2023-04-26T05:16:28.444Z,551.00
2023-04-26T05:17:28.504Z,542.00
2023-04-26T05:18:28.470Z,527.00
2023-04-26T05:19:28.504Z,536.00
2023-04-26T05:20:28.521Z,526.00
2023-04-26T05:21:28.529Z,535.00
2023-04-26T05:22:28.534Z,522.00
2023-04-26T05:23:28.552Z,539.00
2023-04-26T05:24:28.564Z,547.00
2023-04-26T05:25:28.573Z,538.00
2023-04-26T05:26:28.597Z,543.00
2023-04-26T05:27:28.632Z,539.00
2023-04-26T05:28:28.636Z,561.00
2023-04-26T05:29:28.670Z,574.00
2023-04-26T05:30:28.702Z,614.00
2023-04-26T05:31:28.764Z,619.00
2023-04-26T05:32:28.763Z,628.00
2023-04-26T05:33:28.752Z,641.00
2023-04-26T05:34:28.779Z,675.00
2023-04-26T05:35:28.803Z,765.00
2023-04-26T05:36:29.960Z,882.00
2023-04-26T05:37:28.900Z,972.00
2023-04-26T05:38:28.978Z,1051.00
2023-04-26T05:39:29.004Z,1128.00
2023-04-26T05:40:29.067Z,1153.00
2023-04-26T05:41:29.163Z,1130.00
2023-04-26T05:42:29.387Z,1196.00
2023-04-26T05:43:29.339Z,1293.00
2023-04-26T05:44:29.341Z,1471.00
2023-04-26T05:45:29.231Z,2104.00
2023-04-26T05:46:29.276Z,2103.00
2023-04-26T05:47:29.303Z,2011.00
2023-04-26T05:48:29.302Z,1810.00
2023-04-26T05:49:29.367Z,1713.00
2023-04-26T05:50:29.429Z,1701.00
2023-04-26T05:51:29.465Z,1768.00
2023-04-26T05:52:29.525Z,1681.00
2023-04-26T05:53:29.553Z,1719.00
2023-04-26T05:54:29.551Z,1729.00
2023-04-26T05:55:29.569Z,1746.00
2023-04-26T05:56:29.559Z,1734.00
2023-04-26T05:57:29.617Z,1702.00
2023-04-26T05:58:29.597Z,1676.00
2023-04-26T05:59:29.663Z,1630.00
2023-04-26T06:00:29.731Z,1631.00
2023-04-26T06:01:29.748Z,1639.00
2023-04-26T06:02:29.903Z,1607.00
2023-04-26T06:03:30.135Z,1578.00
2023-04-26T06:04:30.143Z,1437.00
2023-04-26T06:05:30.070Z,1493.00
2023-04-26T06:06:29.984Z,1516.00
2023-04-26T06:07:30.134Z,1488.00
2023-04-26T06:08:30.016Z,1486.00
2023-04-26T06:09:30.139Z,1492.00
2023-04-26T06:10:30.218Z,1429.00
2023-04-26T06:11:30.225Z,1448.00
2023-04-26T06:12:30.137Z,1451.00
2023-04-26T06:13:30.057Z,1433.00
2023-04-26T06:14:30.921Z,1418.00
2023-04-26T06:15:30.656Z,1392.00
2023-04-26T06:16:30.265Z,1484.00
2023-04-26T06:17:30.292Z,1842.00
2023-04-26T06:18:30.257Z,1889.00
2023-04-26T06:19:30.448Z,1750.00
2023-04-26T06:20:30.812Z,1653.00
2023-04-26T06:21:30.314Z,1674.00
2023-04-26T06:22:30.592Z,1662.00
2023-04-26T06:23:30.319Z,1588.00
2023-04-26T06:24:30.345Z,1585.00
2023-04-26T06:25:30.343Z,1597.00
2023-04-26T06:26:30.346Z,1752.00
2023-04-26T06:27:30.350Z,1925.00
2023-04-26T06:28:30.362Z,1880.00
2023-04-26T06:29:30.335Z,1857.00
2023-04-26T06:30:30.576Z,1838.00
2023-04-26T06:31:30.423Z,1764.00
2023-04-26T06:32:30.396Z,1636.00
2023-04-26T06:33:30.366Z,1312.00
2023-04-26T06:34:30.389Z,1373.00
2023-04-26T06:35:30.585Z,1934.00
2023-04-26T06:36:30.465Z,1644.00
2023-04-26T06:37:30.467Z,1630.00
2023-04-26T06:38:30.546Z,1557.00
2023-04-26T06:39:30.584Z,1619.00
2023-04-26T06:40:31.083Z,1644.00
2023-04-26T06:41:30.646Z,1633.00
2023-04-26T06:42:30.709Z,1579.00
2023-04-26T06:43:30.748Z,1565.00
2023-04-26T06:44:30.826Z,1576.00
2023-04-26T06:45:31.111Z,1574.00
2023-04-26T06:46:30.928Z,1528.00
2023-04-26T06:47:31.036Z,1477.00
2023-04-26T06:48:30.959Z,1451.00
2023-04-26T06:49:30.993Z,1389.00
2023-04-26T06:50:31.017Z,1382.00
2023-04-26T06:51:31.059Z,1245.00
2023-04-26T06:52:31.054Z,1189.00
2023-04-26T06:53:31.110Z,1195.00
2023-04-26T06:54:31.194Z,1213.00
2023-04-26T06:55:32.135Z,1206.00
2023-04-26T06:56:31.269Z,1239.00
2023-04-26T06:57:31.344Z,1245.00
2023-04-26T06:58:31.353Z,1216.00
2023-04-26T06:59:31.345Z,1168.00
2023-04-26T07:00:31.385Z,1163.00
2023-04-26T07:01:31.405Z,1164.00
2023-04-26T07:02:31.593Z,1164.00
2023-04-26T07:03:31.579Z,1091.00
2023-04-26T07:04:31.756Z,1066.00
2023-04-26T07:05:31.613Z,1055.00
2023-04-26T07:06:31.633Z,1036.00
2023-04-26T07:07:31.676Z,918.00
2023-04-26T07:08:31.713Z,801.00
2023-04-26T07:09:31.713Z,837.00
2023-04-26T07:10:32.314Z,650.00
2023-04-26T07:11:31.814Z,592.00
2023-04-26T07:12:31.737Z,608.00
2023-04-26T07:13:31.773Z,524.00
2023-04-26T07:14:31.796Z,400.00
2023-04-26T07:15:31.829Z,400.00
2023-04-26T07:16:31.938Z,400.00
2023-04-26T07:17:31.992Z,400.00
2023-04-26T07:18:31.987Z,400.00
2023-04-26T07:19:31.982Z,404.00
2023-04-26T07:20:32.097Z,427.00
2023-04-26T07:21:32.008Z,507.00
2023-04-26T07:22:32.053Z,506.00
2023-04-26T07:23:32.028Z,611.00
2023-04-26T07:24:32.027Z,689.00
2023-04-26T07:25:32.115Z,636.00
2023-04-26T07:26:32.066Z,660.00
2023-04-26T07:27:32.193Z,520.00
2023-04-26T07:28:32.093Z,405.00
2023-04-26T07:29:32.150Z,400.00
2023-04-26T07:30:32.673Z,443.00
2023-04-26T07:32:32.242Z,603.00
2023-04-26T07:33:32.357Z,608.00
2023-04-26T07:34:32.258Z,627.00
2023-04-26T07:35:32.608Z,721.00
2023-04-26T07:36:32.342Z,1001.00
2023-04-26T07:37:32.572Z,1171.00
2023-04-26T07:38:32.471Z,1231.00
2023-04-26T07:39:32.486Z,1383.00
2023-04-26T07:40:32.757Z,1340.00
2023-04-26T07:41:32.557Z,1391.00
2023-04-26T07:42:32.549Z,1471.00
2023-04-26T07:43:32.592Z,1368.00
2023-04-26T07:44:32.582Z,1406.00
2023-04-26T07:45:32.643Z,1410.00
2023-04-26T07:46:32.599Z,1331.00
2023-04-26T07:47:32.616Z,1266.00
2023-04-26T07:48:32.626Z,1401.00
2023-04-26T07:49:32.658Z,1400.00
2023-04-26T07:50:33.190Z,1458.00
2023-04-26T07:51:32.701Z,1495.00
2023-04-26T07:52:32.671Z,1487.00
2023-04-26T07:53:32.757Z,1418.00
2023-04-26T07:54:32.704Z,1336.00
2023-04-26T07:55:33.112Z,1492.00
2023-04-26T07:56:32.803Z,1524.00
2023-04-26T07:57:32.754Z,1573.00
2023-04-26T07:58:32.769Z,1450.00
2023-04-26T07:59:32.773Z,1507.00
2023-04-26T08:00:33.129Z,1559.00
2023-04-26T08:01:32.800Z,1620.00
2023-04-26T08:02:43.933Z,1646.00
2023-04-26T08:03:33.966Z,1647.00
2023-04-26T08:04:33.150Z,1716.00
2023-04-26T08:05:33.056Z,2005.00
2023-04-26T08:06:32.769Z,2246.00
2023-04-26T08:07:32.742Z,2415.00
2023-04-26T08:08:32.852Z,2239.00
2023-04-26T08:09:32.857Z,2239.00
2023-04-26T08:10:32.904Z,2214.00
2023-04-26T08:11:32.834Z,2146.00
2023-04-26T08:12:32.737Z,2081.00
2023-04-26T08:13:32.692Z,2059.00
2023-04-26T08:14:32.699Z,2045.00
2023-04-26T08:15:33.143Z,2062.00
2023-04-26T08:16:32.878Z,1865.00
2023-04-26T08:17:32.773Z,1827.00
2023-04-26T08:18:32.775Z,1904.00
2023-04-26T08:19:32.842Z,1964.00
2023-04-26T08:20:32.889Z,1928.00
2023-04-26T08:21:32.905Z,1689.00
2023-04-26T08:22:32.971Z,1345.00
2023-04-26T08:23:32.994Z,1476.00
2023-04-26T08:24:33.077Z,1611.00
2023-04-26T08:25:33.127Z,1898.00
2023-04-26T08:26:33.160Z,1909.00
2023-04-26T08:27:33.202Z,1997.00
2023-04-26T08:28:33.274Z,2190.00
2023-04-26T08:29:33.312Z,2204.00
2023-04-26T08:30:33.440Z,2277.00
2023-04-26T08:31:33.503Z,2205.00
2023-04-26T08:32:33.432Z,1936.00
2023-04-26T08:33:33.411Z,1625.00
2023-04-26T08:34:33.412Z,1843.00
2023-04-26T08:35:33.424Z,1792.00
2023-04-26T08:36:33.468Z,1712.00
2023-04-26T08:37:33.724Z,1602.00
2023-04-26T08:38:33.489Z,1610.00
2023-04-26T08:39:33.538Z,1769.00
2023-04-26T08:40:33.686Z,1892.00
2023-04-26T08:41:33.640Z,1967.00
2023-04-26T08:42:33.660Z,2101.00
2023-04-26T08:43:33.701Z,2122.00
2023-04-26T08:44:33.726Z,2158.00
2023-04-26T08:45:33.730Z,1726.00
2023-04-26T08:46:33.787Z,1596.00
2023-04-26T08:47:33.782Z,1394.00
2023-04-26T08:48:33.786Z,1628.00
2023-04-26T08:49:33.776Z,1885.00
2023-04-26T08:50:34.153Z,1971.00
2023-04-26T08:51:33.882Z,1840.00
2023-04-26T08:52:33.960Z,1783.00
2023-04-26T08:53:34.018Z,1834.00
2023-04-26T08:54:34.047Z,1803.00
2023-04-26T08:55:34.048Z,1877.00
2023-04-26T08:56:34.083Z,1907.00
2023-04-26T08:57:34.154Z,1733.00
2023-04-26T08:58:34.222Z,1879.00
2023-04-26T08:59:34.213Z,1955.00
2023-04-26T09:00:34.286Z,1988.00
2023-04-26T09:01:34.368Z,1841.00
2023-04-26T09:02:34.581Z,1940.00
2023-04-26T09:03:34.654Z,1876.00
2023-04-26T09:04:34.743Z,1951.00
2023-04-26T09:05:34.579Z,1777.00
2023-04-26T09:06:34.598Z,1873.00
2023-04-26T09:07:34.682Z,1673.00
2023-04-26T09:08:34.729Z,1839.00
2023-04-26T09:09:34.780Z,1883.00
2023-04-26T09:10:34.840Z,1922.00
2023-04-26T09:11:34.963Z,1918.00
2023-04-26T09:12:34.939Z,1938.00
2023-04-26T09:13:34.969Z,1937.00
2023-04-26T09:14:35.016Z,1904.00
2023-04-26T09:15:35.164Z,1578.00
2023-04-26T09:16:35.159Z,1504.00
2023-04-26T09:17:35.192Z,1265.00
2023-04-26T09:18:35.200Z,1287.00
2023-04-26T09:19:35.264Z,1247.00
2023-04-26T09:20:35.663Z,1344.00
2023-04-26T09:21:35.652Z,1296.00
2023-04-26T09:22:35.253Z,1401.00
2023-04-26T09:23:35.359Z,1299.00
2023-04-26T09:24:35.361Z,1309.00
2023-04-26T09:25:35.426Z,1197.00
2023-04-26T09:26:35.659Z,728.00
2023-04-26T09:27:35.528Z,800.00
2023-04-26T09:28:35.546Z,696.00
2023-04-26T09:29:35.575Z,653.00
2023-04-26T09:30:35.648Z,587.00
2023-04-26T09:31:35.682Z,573.00
2023-04-26T09:32:35.688Z,590.00
2023-04-26T09:33:35.637Z,678.00
2023-04-26T09:34:35.618Z,771.00
2023-04-26T09:35:35.630Z,771.00
2023-04-26T09:36:35.641Z,637.00
2023-04-26T09:37:39.087Z,568.00
2023-04-26T09:38:36.637Z,570.00
2023-04-26T09:39:35.791Z,550.00
2023-04-26T09:40:35.656Z,527.00
2023-04-26T09:41:35.608Z,400.00
2023-04-26T09:42:35.585Z,436.00
2023-04-26T09:43:35.887Z,406.00
2023-04-26T09:44:35.587Z,400.00
2023-04-26T09:45:35.594Z,400.00
2023-04-26T09:46:35.640Z,400.00
2023-04-26T09:47:35.562Z,400.00
2023-04-26T09:48:35.617Z,400.00
2023-04-26T09:49:35.553Z,400.00
2023-04-26T09:50:35.565Z,777.00
2023-04-26T09:51:35.524Z,1266.00
2023-04-26T09:52:35.539Z,754.00
2023-04-26T09:53:35.545Z,996.00
2023-04-26T09:54:35.536Z,400.00
2023-04-26T09:55:36.108Z,400.00
2023-04-26T09:56:35.601Z,400.00
2023-04-26T09:57:35.654Z,400.00
2023-04-26T09:58:35.702Z,400.00
2023-04-26T09:59:35.768Z,400.00
2023-04-26T10:00:35.817Z,400.00
2023-04-26T10:01:35.947Z,400.00
2023-04-26T10:02:36.012Z,400.00
2023-04-26T10:03:36.069Z,400.00
2023-04-26T10:04:36.077Z,400.00
2023-04-26T10:05:35.985Z,400.00
2023-04-26T10:06:35.956Z,400.00
2023-04-26T10:07:35.981Z,429.00
2023-04-26T10:08:36.029Z,501.00
2023-04-26T10:09:36.096Z,519.00
2023-04-26T10:10:36.129Z,589.00
2023-04-26T10:11:36.227Z,1091.00
2023-04-26T10:12:36.264Z,1468.00
2023-04-26T10:13:36.358Z,1731.00
2023-04-26T10:14:36.431Z,1993.00
2023-04-26T10:15:36.566Z,2331.00
2023-04-26T10:16:36.484Z,2494.00
2023-04-26T10:17:36.531Z,2560.00
2023-04-26T10:18:36.406Z,2462.00
2023-04-26T10:19:36.430Z,2478.00
2023-04-26T10:20:36.466Z,2419.00
2023-04-26T10:21:36.690Z,2296.00
2023-04-26T10:22:36.462Z,2027.00
2023-04-26T10:23:36.463Z,1963.00
2023-04-26T10:24:36.518Z,1932.00
2023-04-26T10:25:36.512Z,2007.00
2023-04-26T10:26:36.683Z,1640.00
2023-04-26T10:27:36.601Z,1960.00
2023-04-26T10:28:36.648Z,2119.00
2023-04-26T10:29:36.703Z,1969.00
2023-04-26T10:30:36.676Z,2200.00
2023-04-26T10:31:36.727Z,2411.00
2023-04-26T10:32:36.713Z,2374.00
2023-04-26T10:33:36.719Z,2835.00
2023-04-26T10:34:36.723Z,2853.00
2023-04-26T10:35:36.760Z,2648.00
2023-04-26T10:36:37.191Z,2649.00
2023-04-26T10:37:36.900Z,2835.00
2023-04-26T10:38:36.943Z,3050.00
2023-04-26T10:39:37.004Z,3222.00
2023-04-26T10:40:37.040Z,3596.00
2023-04-26T10:41:37.192Z,3837.00
2023-04-26T10:42:37.124Z,4062.00
2023-04-26T10:43:37.157Z,4080.00
2023-04-26T10:44:37.220Z,4079.00
2023-04-26T10:45:37.279Z,4016.00
2023-04-26T10:46:37.320Z,3953.00
2023-04-26T10:47:37.671Z,4029.00
2023-04-26T10:48:37.324Z,4080.00
2023-04-26T10:49:37.370Z,4124.00
2023-04-26T10:50:37.419Z,4170.00
2023-04-26T10:51:37.434Z,4184.00
2023-04-26T10:52:37.483Z,4224.00
2023-04-26T10:53:37.520Z,4263.00
2023-04-26T10:54:37.526Z,4262.00
2023-04-26T10:55:37.569Z,4295.00
2023-04-26T10:56:37.576Z,4295.00
2023-04-26T10:57:37.771Z,4325.00
2023-04-26T10:58:37.819Z,4326.00
2023-04-26T10:59:51.128Z,4321.00
2023-04-26T11:00:38.873Z,4322.00
2023-04-26T11:01:37.774Z,4335.00
2023-04-26T11:02:37.784Z,4353.00
2023-04-26T11:03:38.294Z,4414.00
2023-04-26T11:04:37.792Z,4448.00
2023-04-26T11:05:37.812Z,4490.00
2023-04-26T11:06:37.734Z,4491.00
2023-04-26T11:07:37.743Z,4515.00
2023-04-26T11:08:37.726Z,4499.00
2023-04-26T11:09:37.706Z,4522.00
2023-04-26T11:10:37.706Z,4484.00
2023-04-26T11:11:37.732Z,4455.00
2023-04-26T11:12:37.693Z,4451.00
2023-04-26T11:13:37.697Z,4485.00
2023-04-26T11:14:37.686Z,4480.00
2023-04-26T11:15:37.709Z,4467.00
2023-04-26T11:16:37.723Z,4507.00
2023-04-26T11:17:37.783Z,4487.00
2023-04-26T11:18:37.713Z,4499.00
2023-04-26T11:19:37.744Z,4505.00
2023-04-26T11:20:37.745Z,4463.00
2023-04-26T11:21:37.787Z,4481.00
2023-04-26T11:22:37.772Z,4506.00
2023-04-26T11:23:37.797Z,4485.00
2023-04-26T11:24:37.837Z,4503.00
2023-04-26T11:25:37.843Z,4494.00
2023-04-26T11:26:37.869Z,4479.00
2023-04-26T11:27:37.903Z,4453.00
2023-04-26T11:28:37.936Z,4468.00
2023-04-26T11:29:37.935Z,4452.00
2023-04-26T11:30:37.989Z,4442.00
2023-04-26T11:31:38.021Z,4448.00
2023-04-26T11:32:38.158Z,4456.00
2023-04-26T11:33:38.019Z,4484.00
2023-04-26T11:34:38.084Z,4452.00
2023-04-26T11:35:38.237Z,4404.00
2023-04-26T11:36:38.204Z,4419.00
2023-04-26T11:37:38.243Z,4417.00
2023-04-26T11:38:38.317Z,4413.00
2023-04-26T11:39:38.347Z,4398.00
2023-04-26T11:40:38.518Z,4394.00
2023-04-26T11:41:38.441Z,4402.00
2023-04-26T11:42:38.530Z,4395.00
2023-04-26T11:43:38.623Z,4350.00
2023-04-26T11:44:38.600Z,4353.00
2023-04-26T11:45:38.640Z,4380.00
2023-04-26T11:46:38.654Z,4342.00
2023-04-26T11:47:38.709Z,4333.00
2023-04-26T11:48:38.650Z,4340.00
2023-04-26T11:49:38.650Z,4342.00
2023-04-26T11:50:38.683Z,4313.00
2023-04-26T11:51:38.715Z,4326.00
2023-04-26T11:52:38.752Z,4308.00
2023-04-26T11:53:38.925Z,4329.00
2023-04-26T11:54:38.789Z,4309.00
2023-04-26T11:55:38.834Z,4266.00
2023-04-26T11:56:38.864Z,4292.00
2023-04-26T11:57:38.873Z,4307.00
2023-04-26T11:58:38.893Z,4309.00
2023-04-26T11:59:38.901Z,4280.00
2023-04-26T12:00:38.976Z,4244.00
2023-04-26T12:01:39.070Z,4285.00
2023-04-26T12:02:39.223Z,4281.00
2023-04-26T12:03:39.190Z,4277.00
2023-04-26T12:04:39.361Z,4278.00
2023-04-26T12:05:39.231Z,4282.00
2023-04-26T12:06:39.199Z,4234.00
2023-04-26T12:07:39.258Z,4232.00
2023-04-26T12:08:39.292Z,4243.00
2023-04-26T12:09:39.333Z,4271.00
2023-04-26T12:10:39.434Z,4287.00
2023-04-26T12:11:39.776Z,4254.00
2023-04-26T12:12:39.649Z,4272.00
2023-04-26T12:13:39.598Z,4238.00
2023-04-26T12:14:39.652Z,4259.00
2023-04-26T12:15:39.760Z,4242.00
2023-04-26T12:16:39.793Z,4254.00
2023-04-26T12:17:39.848Z,4262.00
2023-04-26T12:18:39.777Z,4321.00
2023-04-26T12:19:39.821Z,4310.00
2023-04-26T12:20:39.808Z,4319.00
2023-04-26T12:21:39.853Z,4329.00
2023-04-26T12:22:39.928Z,4337.00
2023-04-26T12:23:39.981Z,4321.00
2023-04-26T12:24:40.036Z,4335.00
2023-04-26T12:25:40.047Z,4339.00
2023-04-26T12:26:40.090Z,4325.00
2023-04-26T12:27:40.145Z,4319.00
2023-04-26T12:28:40.161Z,4319.00
2023-04-26T12:29:40.196Z,4319.00
2023-04-26T12:30:40.190Z,4340.00
2023-04-26T12:31:40.337Z,4320.00
2023-04-26T12:32:40.257Z,4315.00
2023-04-26T12:33:40.383Z,4336.00
2023-04-26T12:34:40.260Z,4361.00
2023-04-26T12:35:40.267Z,4359.00
2023-04-26T12:36:40.324Z,4350.00
2023-04-26T12:37:40.329Z,4364.00
2023-04-26T12:38:40.499Z,4367.00
2023-04-26T12:39:40.423Z,4348.00
2023-04-26T12:40:40.455Z,4332.00
2023-04-26T12:41:40.455Z,4338.00
2023-04-26T12:42:40.475Z,4339.00
2023-04-26T12:43:40.468Z,4356.00
2023-04-26T12:44:40.483Z,4327.00
2023-04-26T12:45:40.464Z,4312.00
2023-04-26T12:46:40.587Z,4316.00
2023-04-26T12:47:40.560Z,4314.00
2023-04-26T12:48:40.565Z,4314.00